Time;durP1;ratioP1;P1;durP2;ratioP2;P2;SDS_P1;SDS_P2;PMS_P1;PMS_P2;Temp;Humidity;BMP_temperature;BMP_pressure;BME280_temperature;BME280_humidity;BME280_pressure;Samples;Min_cycle;Max_cycle;Signal;HPM_P1;HPM_P2
2021/01/28 00:00:00;;;;;;;5.80;3.47;;;;;;;-0.78;78.18;98263.58;1821524;77;21617;-61
2021/01/28 00:02:29;;;;;;;8.17;4.57;;;;;;;-0.78;78.11;98256.97;1822600;77;21215;-62
2021/01/28 00:04:57;;;;;;;5.60;3.07;;;;;;;-0.78;78.03;98251.69;1814860;76;21187;-61
2021/01/28 00:07:24;;;;;;;6.67;3.60;;;;;;;-0.78;78.07;98250.81;1817614;76;21207;-62
2021/01/28 00:09:53;;;;;;;7.67;3.27;;;;;;;-0.78;77.89;98258.30;1810831;77;21211;-62
2021/01/28 00:12:21;;;;;;;5.37;2.90;;;;;;;-0.78;77.58;98260.94;1812209;77;21556;-61
2021/01/28 00:14:48;;;;;;;3.57;2.60;;;;;;;-0.80;77.55;98261.42;1808887;76;21344;-61
2021/01/28 00:17:15;;;;;;;4.83;2.90;;;;;;;-0.81;77.67;98258.81;1814602;77;21180;-61
2021/01/28 00:19:43;;;;;;;5.33;2.73;;;;;;;-0.80;77.64;98261.42;1818359;77;21452;-61
2021/01/28 00:22:11;;;;;;;7.13;2.17;;;;;;;-0.77;77.58;98249.91;1813533;77;21159;-62
2021/01/28 00:24:38;;;;;;;8.73;2.97;;;;;;;-0.74;77.42;98250.27;1816685;77;21190;-61
2021/01/28 00:27:05;;;;;;;5.50;2.60;;;;;;;-0.74;77.49;98250.27;1812634;77;21803;-61
2021/01/28 00:29:32;;;;;;;4.43;3.13;;;;;;;-0.72;77.25;98245.81;1812708;77;21180;-62
2021/01/28 00:32:00;;;;;;;4.43;2.50;;;;;;;-0.70;77.16;98255.44;1805824;77;21177;-61
2021/01/28 00:34:27;;;;;;;8.37;3.63;;;;;;;-0.70;77.19;98246.64;1808284;77;21200;-62
2021/01/28 00:36:54;;;;;;;4.27;3.17;;;;;;;-0.71;77.27;98230.38;1818344;76;21188;-61
2021/01/28 00:39:21;;;;;;;6.03;3.27;;;;;;;-0.69;77.19;98212.71;1810721;77;21219;-61
2021/01/28 00:41:49;;;;;;;3.43;2.83;;;;;;;-0.68;77.26;98232.94;1813302;77;21156;-61
2021/01/28 00:44:16;;;;;;;6.03;2.70;;;;;;;-0.65;77.27;98243.41;1810728;76;21207;-62
2021/01/28 00:46:43;;;;;;;4.40;2.87;;;;;;;-0.65;77.18;98246.92;1813660;77;21162;-62
2021/01/28 00:49:11;;;;;;;3.97;2.30;;;;;;;-0.65;77.22;98236.80;1809527;77;21147;-62
2021/01/28 00:51:39;;;;;;;4.20;2.77;;;;;;;-0.64;77.27;98234.58;1818564;77;21082;-63
2021/01/28 00:54:06;;;;;;;4.17;2.77;;;;;;;-0.64;77.23;98227.52;1753122;79;21560;-61
2021/01/28 00:56:33;;;;;;;3.50;2.90;;;;;;;-0.62;77.24;98229.67;1776837;78;22652;-60
2021/01/28 00:59:02;;;;;;;5.50;2.77;;;;;;;-0.62;77.27;98220.88;1772726;78;21146;-62
2021/01/28 01:01:31;;;;;;;6.50;3.00;;;;;;;-0.61;77.28;98212.04;1770855;78;21935;-61
2021/01/28 01:03:58;;;;;;;4.07;2.47;;;;;;;-0.65;77.39;98207.73;1774611;78;21174;-63
2021/01/28 01:06:26;;;;;;;4.63;3.07;;;;;;;-0.69;77.50;98208.30;1772848;79;21159;-62
2021/01/28 01:08:54;;;;;;;7.70;3.50;;;;;;;-0.68;77.52;98213.12;1772204;78;21222;-63
2021/01/28 01:11:23;;;;;;;5.57;2.67;;;;;;;-0.71;77.62;98210.56;1769075;79;21241;-60
2021/01/28 01:13:53;;;;;;;6.33;3.20;;;;;;;-0.76;77.73;98215.50;1772660;78;21286;-60
2021/01/28 01:16:25;;;;;;;5.13;2.70;;;;;;;-0.80;77.81;98207.26;1774588;78;21102;-62
2021/01/28 01:19:06;;;;;;;6.50;3.20;;;;;;;-0.73;78.02;98201.80;1822808;76;26837;-57
2021/01/28 01:21:39;;;;;;;6.60;3.53;;;;;;;-0.77;77.94;98195.75;1796791;77;21174;-58
2021/01/28 01:24:16;;;;;;;5.78;4.40;;;;;;;-0.74;77.99;98198.73;1847591;74;27729;-56
2021/01/28 01:26:44;;;;;;;3.70;2.70;;;;;;;-0.74;78.09;98204.02;1836768;75;21012;-56
2021/01/28 01:29:11;;;;;;;4.07;2.53;;;;;;;-0.68;77.84;98199.42;1838682;76;21809;-56
2021/01/28 01:31:57;;;;;;;4.30;2.50;;;;;;;-0.67;77.80;98197.66;1833444;75;21036;-56
2021/01/28 01:34:25;;;;;;;6.50;2.47;;;;;;;-0.67;77.75;98189.27;1831270;75;21210;-55
2021/01/28 01:36:53;;;;;;;3.47;1.97;;;;;;;-0.69;77.85;98194.22;1830375;75;21584;-55
2021/01/28 01:39:20;;;;;;;3.47;2.10;;;;;;;-0.70;77.77;98193.34;1829488;75;21186;-56
2021/01/28 01:41:48;;;;;;;4.20;2.20;;;;;;;-0.71;77.89;98187.64;1827250;75;22592;-56
2021/01/28 01:44:17;;;;;;;4.23;2.50;;;;;;;-0.70;77.83;98181.45;1807973;77;21608;-57
2021/01/28 01:46:54;;;;;;;4.50;2.03;;;;;;;-0.71;77.78;98180.17;1813080;77;20940;-58
2021/01/28 01:49:24;;;;;;;6.47;1.83;;;;;;;-0.74;77.84;98180.24;1778937;78;21194;-57
2021/01/28 01:51:52;;;;;;;5.07;2.87;;;;;;;-0.76;77.96;98174.55;1810119;77;21624;-56
2021/01/28 01:54:34;;;;;;;4.97;2.80;;;;;;;-0.76;78.04;98175.87;1808774;77;21286;-56
2021/01/28 01:57:06;;;;;;;5.87;3.03;;;;;;;-0.76;78.10;98178.51;1782080;77;21223;-57
2021/01/28 01:59:46;;;;;;;9.07;5.47;;;;;;;-0.74;78.16;98178.47;1815642;77;21201;-56
2021/01/28 02:02:35;;;;;;;6.83;3.40;;;;;;;-0.73;78.22;98176.70;1816394;77;21668;-56
2021/01/28 02:05:39;;;;;;;7.53;3.40;;;;;;;-0.69;78.29;98162.05;1821301;76;26873;-58
2021/01/28 02:08:25;;;;;;;7.10;2.90;;;;;;;-0.70;78.30;98167.38;1792290;79;20969;-58
2021/01/28 02:10:55;;;;;;;5.80;3.27;;;;;;;-0.69;78.33;98170.43;1797255;79;21141;-56
2021/01/28 02:13:34;;;;;;;5.17;2.70;;;;;;;-0.71;78.45;98161.67;1790291;77;21202;-56
2021/01/28 02:16:12;;;;;;;8.90;3.07;;;;;;;-0.76;78.70;98151.22;1795081;79;21000;-57
2021/01/28 02:18:42;;;;;;;5.43;3.83;;;;;;;-0.78;78.74;98151.29;1795131;79;21178;-58
2021/01/28 02:21:35;;;;;;;7.60;3.97;;;;;;;-0.79;78.85;98148.69;1792959;78;21154;-59
2021/01/28 02:24:39;;;;;;;5.87;4.10;;;;;;;-0.78;79.09;98145.14;1787130;77;21210;-56
2021/01/28 02:27:08;;;;;;;7.63;3.60;;;;;;;-0.79;79.18;98131.06;1794507;78;21599;-58
2021/01/28 02:29:53;;;;;;;5.08;4.60;;;;;;;-0.77;79.25;98141.11;1853910;75;28666;-54
2021/01/28 02:32:21;;;;;;;6.53;3.77;;;;;;;-0.79;79.34;98148.23;1785398;78;21560;-58
2021/01/28 02:34:50;;;;;;;6.60;3.50;;;;;;;-0.71;79.30;98141.41;1765837;80;22240;-56
2021/01/28 02:37:20;;;;;;;4.47;3.27;;;;;;;-0.69;79.24;98138.73;1775066;79;21183;-57
2021/01/28 02:39:59;;;;;;;4.50;3.43;;;;;;;-0.67;79.27;98140.39;1779043;79;21592;-57
2021/01/28 02:42:45;;;;;;;3.80;2.37;;;;;;;-0.67;79.23;98130.27;1758488;79;21243;-58
2021/01/28 02:45:22;;;;;;;5.17;3.60;;;;;;;-0.67;79.27;98133.78;1743836;81;21000;-57
2021/01/28 02:48:01;;;;;;;5.63;2.70;;;;;;;-0.62;79.25;98137.18;1819568;76;27242;-53
2021/01/28 02:50:40;;;;;;;5.50;3.27;;;;;;;-0.67;79.21;98144.80;1711595;82;21091;-55
2021/01/28 02:53:07;;;;;;;5.30;3.00;;;;;;;-0.66;79.23;98159.75;1736395;81;21906;-57
2021/01/28 02:55:37;;;;;;;6.77;3.40;;;;;;;-0.67;79.22;98164.17;1757117;79;21550;-58
2021/01/28 02:58:04;;;;;;;5.03;3.10;;;;;;;-0.68;79.26;98154.99;1756385;80;21146;-55
2021/01/28 03:00:35;;;;;;;6.77;4.20;;;;;;;-0.69;79.34;98148.84;1737266;79;21202;-55
2021/01/28 03:03:05;;;;;;;4.77;3.10;;;;;;;-0.65;79.45;98154.89;1739176;81;20988;-55
2021/01/28 03:05:41;;;;;;;6.40;3.03;;;;;;;-0.62;79.36;98150.84;1737786;79;21205;-56
2021/01/28 03:08:09;;;;;;;5.17;2.90;;;;;;;-0.61;79.34;98152.12;1791332;79;22170;-57
2021/01/28 03:10:37;;;;;;;4.33;3.37;;;;;;;-0.58;79.36;98152.47;1788309;79;21170;-55
2021/01/28 03:13:10;;;;;;;5.70;3.33;;;;;;;-0.57;79.27;98157.72;1789011;79;21209;-56
2021/01/28 03:15:52;;;;;;;13.33;4.00;;;;;;;-0.56;79.29;98157.27;1797399;77;21739;-55
2021/01/28 03:18:21;;;;;;;4.67;3.43;;;;;;;-0.56;79.26;98146.69;1789846;77;21167;-58
2021/01/28 03:20:51;;;;;;;7.17;3.73;;;;;;;-0.58;79.34;98140.13;1790506;79;21194;-55
2021/01/28 03:23:32;;;;;;;6.43;3.37;;;;;;;-0.61;79.35;98137.59;1741333;79;21246;-56
2021/01/28 03:26:01;;;;;;;8.93;4.10;;;;;;;-0.61;79.44;98142.01;1784516;79;21210;-57
2021/01/28 03:28:29;;;;;;;7.50;3.90;;;;;;;-0.60;79.43;98151.22;1790518;79;21433;-57
2021/01/28 03:30:58;;;;;;;8.13;3.47;;;;;;;-0.57;79.48;98149.79;1786066;77;21277;-55
2021/01/28 03:33:26;;;;;;;4.93;3.90;;;;;;;-0.54;79.42;98143.55;1791266;79;21617;-54
2021/01/28 03:35:54;;;;;;;4.63;3.20;;;;;;;-0.53;79.43;98140.00;1793683;79;21126;-55
2021/01/28 03:38:21;;;;;;;5.43;3.07;;;;;;;-0.50;79.35;98141.22;1789171;79;21118;-55
2021/01/28 03:40:52;;;;;;;4.37;2.93;;;;;;;-0.51;79.28;98139.52;1787663;77;21134;-55
2021/01/28 03:43:20;;;;;;;5.17;4.00;;;;;;;-0.53;79.09;98143.97;1766903;80;22118;-55
2021/01/28 03:45:48;;;;;;;6.17;3.67;;;;;;;-0.54;79.18;98132.53;1767354;80;22177;-55
2021/01/28 03:48:16;;;;;;;7.30;3.73;;;;;;;-0.52;79.24;98130.72;1772674;80;21110;-54
2021/01/28 03:50:53;;;;;;;10.30;4.27;;;;;;;-0.45;79.23;98124.78;1821119;75;26815;-54
2021/01/28 03:53:22;;;;;;;6.70;3.63;;;;;;;-0.48;79.19;98138.95;1772252;79;22173;-54
2021/01/28 03:56:08;;;;;;;6.73;4.07;;;;;;;-0.50;79.20;98135.48;1791261;79;21644;-55
2021/01/28 03:58:36;;;;;;;4.97;3.33;;;;;;;-0.53;79.23;98138.69;1787673;78;21461;-57
2021/01/28 04:01:22;;;;;;;6.37;3.97;;;;;;;-0.49;79.37;98131.06;1816810;76;26910;-57
2021/01/28 04:03:50;;;;;;;6.53;4.13;;;;;;;-0.50;79.37;98134.61;1791117;79;20937;-55
2021/01/28 04:06:22;;;;;;;7.67;3.87;;;;;;;-0.49;79.39;98134.56;1789854;77;21799;-55
2021/01/28 04:09:00;;;;;;;6.45;5.85;;;;;;;-0.43;79.37;98128.25;1853816;75;27818;-56
2021/01/28 04:11:37;;;;;;;8.53;4.43;;;;;;;-0.42;79.33;98128.64;1739114;78;21517;-57
2021/01/28 04:14:06;;;;;;;6.43;4.20;;;;;;;-0.36;79.30;98135.08;1802951;78;21899;-55
2021/01/28 04:16:33;;;;;;;7.37;4.97;;;;;;;-0.37;79.24;98134.67;1801643;78;21427;-56
2021/01/28 04:19:01;;;;;;;5.50;3.50;;;;;;;-0.36;79.23;98132.44;1784494;78;20970;-56
2021/01/28 04:21:31;;;;;;;6.70;3.73;;;;;;;-0.38;79.23;98138.22;1779830;78;21022;-55
2021/01/28 04:24:00;;;;;;;6.40;4.23;;;;;;;-0.36;79.29;98143.02;1778875;78;21561;-56
2021/01/28 04:26:49;;;;;;;7.83;4.33;;;;;;;-0.28;79.26;98142.78;1869363;75;27116;-56
2021/01/28 04:29:18;;;;;;;5.67;4.50;;;;;;;-0.29;79.15;98149.84;1783631;78;21205;-57
2021/01/28 04:31:45;;;;;;;5.60;3.57;;;;;;;-0.32;79.11;98139.34;1777090;79;21623;-53
2021/01/28 04:34:14;;;;;;;2.77;2.47;;;;;;;-0.31;79.18;98134.47;1803123;78;21189;-54
2021/01/28 04:36:42;;;;;;;5.80;3.23;;;;;;;-0.33;79.07;98127.48;1804010;77;21072;-54
2021/01/28 04:39:34;;;;;;;7.53;4.83;;;;;;;-0.33;79.21;98130.14;1869451;75;26836;-54
2021/01/28 04:42:02;;;;;;;7.47;4.03;;;;;;;-0.40;79.37;98125.05;1829541;77;20953;-55
2021/01/28 04:44:31;;;;;;;6.47;4.23;;;;;;;-0.40;79.46;98123.72;1787917;77;22698;-56
2021/01/28 04:47:06;;;;;;;6.23;4.63;;;;;;;-0.41;79.50;98120.66;1809199;77;21182;-55
2021/01/28 04:49:53;;;;;;;5.30;4.50;;;;;;;-0.41;79.52;98123.77;1806239;77;21036;-57
2021/01/28 04:52:29;;;;;;;6.33;3.17;;;;;;;-0.41;79.60;98121.12;1805623;77;21262;-56
2021/01/28 04:55:15;;;;;;;6.90;4.53;;;;;;;-0.41;79.68;98121.12;1810824;77;20964;-56
2021/01/28 04:57:44;;;;;;;5.23;3.87;;;;;;;-0.40;79.67;98114.92;1749357;80;21630;-56
2021/01/28 05:00:14;;;;;;;6.47;4.30;;;;;;;-0.43;79.77;98113.27;1760489;79;21238;-58
2021/01/28 05:02:43;;;;;;;6.73;4.73;;;;;;;-0.40;79.79;98111.83;1760290;79;20981;-58
2021/01/28 05:05:12;;;;;;;6.03;3.53;;;;;;;-0.40;79.77;98105.22;1756781;79;21206;-57
2021/01/28 05:07:44;;;;;;;4.43;3.13;;;;;;;-0.40;79.80;98088.03;1761265;79;21119;-56
2021/01/28 05:10:45;;;;;;;5.37;4.13;;;;;;;-0.40;79.75;98082.75;1736746;79;21820;-59
2021/01/28 05:13:34;;;;;;;4.37;2.93;;;;;;;-0.39;79.82;98077.00;1870441;75;26918;-56
2021/01/28 05:16:42;;;;;;;5.30;3.70;;;;;;;-0.45;79.88;98073.23;1724354;78;21202;-53
2021/01/28 05:19:47;;;;;;;7.70;4.30;;;;;;;-0.45;79.96;98079.84;1775982;80;21367;-56
2021/01/28 05:22:37;;;;;;;5.50;3.13;;;;;;;-0.45;79.97;98083.81;1803003;78;21498;-56
2021/01/28 05:25:31;;;;;;;7.80;4.87;;;;;;;-0.47;80.01;98081.21;1806145;78;21028;-58
2021/01/28 05:28:30;;;;;;;4.73;3.57;;;;;;;-0.46;80.13;98082.08;1679820;83;21054;-57
2021/01/28 05:31:18;;;;;;;5.10;4.40;;;;;;;-0.45;80.18;98076.75;1712094;81;21280;-58
2021/01/28 05:33:47;;;;;;;6.47;3.60;;;;;;;-0.43;80.14;98086.83;1714689;81;21896;-56
2021/01/28 05:36:21;;;;;;;8.50;3.83;;;;;;;-0.41;80.18;98084.11;1713679;81;21475;-56
2021/01/28 05:38:54;;;;;;;6.80;4.08;;;;;;;-0.42;80.03;98086.34;1708279;81;21173;-56
2021/01/28 05:41:36;;;;;;;5.63;4.33;;;;;;;-0.42;80.11;98085.88;1709166;81;22246;-59
2021/01/28 05:44:23;;;;;;;6.17;3.77;;;;;;;-0.41;80.15;98073.53;1685486;83;21207;-57
2021/01/28 05:47:24;;;;;;;9.40;4.90;;;;;;;-0.39;80.10;98083.61;1663489;83;21655;-57
2021/01/28 05:50:31;;;;;;;6.93;4.60;;;;;;;-0.34;80.07;98081.68;1870434;75;26917;-56
2021/01/28 05:53:17;;;;;;;4.73;3.33;;;;;;;-0.34;80.07;98092.74;1781879;79;22130;-55
2021/01/28 05:55:46;;;;;;;9.63;5.43;;;;;;;-0.30;80.01;98105.80;1795218;78;21225;-55
2021/01/28 06:01:44;;;;;;;11.67;5.27;;;;;;;-0.28;79.84;98081.97;1696046;82;21562;-58
2021/01/28 06:04:48;;;;;;;7.87;5.07;;;;;;;-0.25;79.87;98076.56;1870944;75;26913;-59
2021/01/28 06:07:47;;;;;;;10.57;5.93;;;;;;;-0.29;79.87;98088.16;1835259;77;21164;-56
2021/01/28 06:10:47;;;;;;;8.00;4.13;;;;;;;-0.33;79.92;98093.98;1843201;77;21134;-54
2021/01/28 06:13:43;;;;;;;5.70;3.62;;;;;;;-0.35;80.03;98104.22;1841755;77;21401;-56
2021/01/28 06:16:57;;;;;;;6.43;3.87;;;;;;;-0.28;80.00;98102.66;1872845;75;26869;-55
2021/01/28 06:21:50;;;;;;;6.30;3.70;;;;;;;-0.25;79.96;98101.68;1753351;79;27253;-58
2021/01/28 06:25:05;;;;;;;7.12;4.22;;;;;;;-0.29;79.85;98100.92;1788591;78;21210;-57
2021/01/28 06:27:56;;;;;;;9.43;4.80;;;;;;;-0.28;79.72;98100.47;1778797;78;21521;-56
2021/01/28 06:30:38;;;;;;;7.93;5.47;;;;;;;-0.28;79.78;98105.30;1787664;78;21178;-56
2021/01/28 06:33:43;;;;;;;9.73;5.10;;;;;;;-0.29;79.77;98112.83;1782964;78;21513;-57
2021/01/28 06:36:54;;;;;;;6.07;5.20;;;;;;;-0.32;79.81;98102.79;1792204;78;20980;-57
2021/01/28 06:39:33;;;;;;;7.03;4.57;;;;;;;-0.23;79.94;98089.28;1872493;75;26736;-57
2021/01/28 06:42:34;;;;;;;5.17;3.73;;;;;;;-0.27;79.93;98080.60;1814493;77;21154;-54
2021/01/28 06:45:24;;;;;;;6.17;3.87;;;;;;;-0.21;80.04;98068.95;1820664;77;27032;-58
2021/01/28 06:48:18;;;;;;;6.87;3.27;;;;;;;-0.25;79.99;98080.07;1785139;78;21351;-57
2021/01/28 06:51:18;;;;;;;4.30;2.70;;;;;;;-0.26;80.03;98073.53;1782620;78;21335;-59
2021/01/28 06:53:50;;;;;;;3.50;3.17;;;;;;;-0.26;80.13;98069.11;1748780;78;21135;-60
2021/01/28 06:56:46;;;;;;;6.15;3.67;;;;;;;-0.25;80.18;98067.30;1759105;78;21068;-60
2021/01/28 06:59:43;;;;;;;3.80;3.23;;;;;;;-0.27;80.25;98051.52;1779212;78;21215;-57
2021/01/28 07:02:33;;;;;;;8.13;3.57;;;;;;;-0.26;80.42;98050.61;1754087;78;20990;-53
2021/01/28 07:05:43;;;;;;;5.43;3.63;;;;;;;-0.26;80.58;98051.93;1780650;78;21225;-56
2021/01/28 07:08:29;;;;;;;4.37;2.90;;;;;;;-0.25;80.66;98048.34;1782640;78;21938;-56
2021/01/28 07:11:41;;;;;;;4.10;2.67;;;;;;;-0.23;80.95;98046.98;1868486;75;26780;-57
2021/01/28 07:14:28;;;;;;;4.35;2.27;;;;;;;-0.27;80.99;98050.65;1859849;76;21173;-57
2021/01/28 07:17:32;;;;;;;3.83;2.73;;;;;;;-0.30;81.21;98046.31;1863079;76;21538;-56
2021/01/28 07:20:03;;;;;;;7.63;3.33;;;;;;;-0.30;81.35;98039.70;1861495;76;20971;-56
2021/01/28 07:22:36;;;;;;;5.63;3.70;;;;;;;-0.32;81.41;98033.59;1857228;76;21442;-58
2021/01/28 07:25:30;;;;;;;3.90;3.13;;;;;;;-0.34;81.62;98033.26;1863884;76;21453;-57
2021/01/28 07:28:22;;;;;;;3.97;2.63;;;;;;;-0.34;81.62;98022.20;1859384;74;21170;-56
2021/01/28 07:31:08;;;;;;;3.53;2.63;;;;;;;-0.31;81.75;98026.53;1782008;79;21665;-57
2021/01/28 07:33:37;;;;;;;5.50;3.40;;;;;;;-0.28;81.79;98037.88;1772038;79;21164;-57
2021/01/28 07:36:29;;;;;;;5.07;3.67;;;;;;;-0.23;82.15;98040.36;1812025;76;27290;-58
2021/01/28 07:39:34;;;;;;;5.20;3.20;;;;;;;-0.25;82.10;98047.48;1778063;78;21319;-56
2021/01/28 07:42:27;;;;;;;5.53;2.93;;;;;;;-0.26;82.21;98049.28;1784532;78;21215;-58
2021/01/28 07:45:34;;;;;;;4.30;2.57;;;;;;;-0.25;82.30;98046.16;1783618;78;21624;-58
2021/01/28 07:48:27;;;;;;;4.43;2.90;;;;;;;-0.20;82.50;98053.05;1791285;78;21016;-59
2021/01/28 07:51:37;;;;;;;4.77;3.13;;;;;;;-0.06;82.52;98049.48;1813244;78;26933;-56
2021/01/28 07:54:07;;;;;;;4.77;2.50;;;;;;;-0.08;82.39;98047.34;1779611;79;21092;-59
2021/01/28 07:56:44;;;;;;;6.87;3.10;;;;;;;-0.06;82.53;98037.58;1781568;79;22608;-58
2021/01/28 07:59:41;;;;;;;4.47;2.73;;;;;;;-0.05;82.40;98039.31;1787578;79;21689;-57
2021/01/28 08:02:29;;;;;;;5.30;3.93;;;;;;;-0.03;82.46;98044.56;1782691;79;22173;-59
2021/01/28 08:05:12;;;;;;;4.27;3.00;;;;;;;-0.02;82.51;98053.77;1790016;78;20930;-56
2021/01/28 08:07:49;;;;;;;5.57;2.87;;;;;;;-0.04;82.54;98058.23;1787048;79;21024;-58
2021/01/28 08:10:32;;;;;;;4.60;3.07;;;;;;;-0.04;82.70;98061.34;1757385;79;22009;-57
2021/01/28 08:13:08;;;;;;;5.07;2.47;;;;;;;-0.04;82.77;98063.53;1789291;79;21048;-60
2021/01/28 08:16:00;;;;;;;4.73;3.70;;;;;;;-0.04;82.89;98072.79;1784428;77;21145;-59
2021/01/28 08:18:31;;;;;;;4.53;2.80;;;;;;;-0.03;82.87;98075.84;1786762;79;21204;-58
2021/01/28 08:21:15;;;;;;;6.93;3.43;;;;;;;-0.04;83.00;98071.47;1788201;79;21163;-60
2021/01/28 08:23:43;;;;;;;7.07;4.30;;;;;;;-0.05;83.06;98060.47;1783945;77;21410;-57
2021/01/28 08:26:28;;;;;;;5.47;3.57;;;;;;;-0.07;83.19;98049.07;1786907;79;22417;-57
2021/01/28 08:29:15;;;;;;;5.90;4.13;;;;;;;-0.03;83.27;98041.46;1785809;77;21217;-57
2021/01/28 08:31:52;;;;;;;7.10;4.57;;;;;;;-0.04;83.17;98048.98;1785489;79;21534;-57
2021/01/28 08:34:25;;;;;;;5.03;3.73;;;;;;;-0.04;83.35;98040.18;1785497;78;21191;-57
2021/01/28 08:36:59;;;;;;;6.40;3.90;;;;;;;0.00;83.27;98043.14;1784640;79;21384;-58
2021/01/28 08:39:32;;;;;;;5.40;3.97;;;;;;;0.05;83.26;98039.02;1788045;78;21194;-56
2021/01/28 08:42:12;;;;;;;5.43;3.87;;;;;;;0.08;83.28;98034.95;1773922;79;21978;-56
2021/01/28 08:44:41;;;;;;;7.97;4.50;;;;;;;0.08;83.24;98026.56;1761737;79;21175;-58
2021/01/28 08:47:25;;;;;;;5.83;4.63;;;;;;;0.08;83.43;98029.20;1762831;79;21175;-58
2021/01/28 08:50:19;;;;;;;6.93;4.00;;;;;;;0.11;83.40;98034.83;1766512;79;22147;-56
2021/01/28 08:52:46;;;;;;;6.20;4.13;;;;;;;0.16;83.33;98035.09;1724553;81;21230;-57
2021/01/28 08:55:23;;;;;;;7.83;4.00;;;;;;;0.19;83.31;98029.69;1756454;79;21167;-59
2021/01/28 08:57:51;;;;;;;9.77;5.93;;;;;;;0.24;83.29;98038.80;1768351;79;21437;-56
2021/01/28 09:00:21;;;;;;;11.53;5.60;;;;;;;0.27;83.34;98042.65;1767380;79;21152;-58
2021/01/28 09:02:51;;;;;;;5.87;4.23;;;;;;;0.31;83.32;98035.02;1767609;79;21171;-57
2021/01/28 09:05:32;;;;;;;6.90;3.67;;;;;;;0.33;83.07;98033.20;1768432;79;21622;-57
2021/01/28 09:08:03;;;;;;;9.67;4.57;;;;;;;0.34;82.95;98026.98;1772101;79;21301;-56
2021/01/28 09:10:41;;;;;;;7.90;3.83;;;;;;;0.36;82.89;98021.16;1771841;79;21100;-59
2021/01/28 09:13:24;;;;;;;6.37;3.10;;;;;;;0.36;82.95;98011.44;1743785;79;21152;-59
2021/01/28 09:16:11;;;;;;;4.13;3.13;;;;;;;0.44;83.02;98011.16;1767589;79;21469;-59
2021/01/28 09:18:45;;;;;;;4.00;2.33;;;;;;;0.49;82.76;98011.89;1754056;79;21194;-59
2021/01/28 09:21:19;;;;;;;3.33;2.07;;;;;;;0.50;82.23;98014.08;1766114;79;21146;-59
2021/01/28 09:24:14;;;;;;;2.85;2.22;;;;;;;0.45;82.18;98005.41;1773950;79;21443;-57
2021/01/28 09:26:41;;;;;;;5.85;3.45;;;;;;;0.44;82.18;97993.09;1769549;79;21091;-57
2021/01/28 09:29:20;;;;;;;4.93;2.53;;;;;;;0.41;82.17;97991.91;1733220;81;21393;-57
2021/01/28 09:31:48;;;;;;;4.23;2.80;;;;;;;0.40;82.27;97988.39;1718345;81;21155;-57
2021/01/28 09:34:29;;;;;;;6.47;2.93;;;;;;;0.42;82.21;97994.50;1714820;81;21145;-57
2021/01/28 09:37:08;;;;;;;5.03;2.40;;;;;;;0.41;82.08;97991.91;1714925;81;21145;-57
2021/01/28 09:39:46;;;;;;;4.77;3.00;;;;;;;0.40;82.12;97983.09;1708193;81;21139;-59
2021/01/28 09:42:30;;;;;;;2.57;2.10;;;;;;;0.38;81.87;97987.57;1717043;81;21611;-56
2021/01/28 09:45:10;;;;;;;4.12;2.55;;;;;;;0.31;81.79;97996.19;1719476;81;21156;-58
2021/01/28 09:47:37;;;;;;;4.40;2.60;;;;;;;0.26;81.98;97986.66;1718817;81;21115;-58
2021/01/28 09:50:09;;;;;;;4.00;2.33;;;;;;;0.26;81.98;97986.66;1712951;81;22054;-57
2021/01/28 09:52:43;;;;;;;2.67;1.93;;;;;;;0.28;82.03;97997.61;1696919;82;21608;-59
2021/01/28 09:55:15;;;;;;;5.55;1.95;;;;;;;0.31;81.95;97991.36;1755630;79;22039;-57
2021/01/28 09:57:42;;;;;;;4.77;2.47;;;;;;;0.33;81.82;97985.10;1755454;79;21048;-56
2021/01/28 10:00:13;;;;;;;3.10;2.03;;;;;;;0.34;81.96;97984.16;1754052;79;21128;-58
2021/01/28 10:02:56;;;;;;;4.80;2.47;;;;;;;0.36;81.96;97967.77;1756778;79;21762;-58
2021/01/28 10:05:26;;;;;;;3.67;2.40;;;;;;;0.38;81.85;97970.37;1756538;79;21083;-58
2021/01/28 10:07:54;;;;;;;3.53;1.70;;;;;;;0.43;81.91;97976.80;1754717;79;23448;-60
2021/01/28 10:10:23;;;;;;;3.33;2.23;;;;;;;0.43;81.67;97977.67;1754206;79;21116;-58
2021/01/28 10:12:54;;;;;;;5.40;2.50;;;;;;;0.42;81.86;97975.11;1754913;79;21544;-58
2021/01/28 10:15:24;;;;;;;4.13;2.13;;;;;;;0.40;81.92;97975.61;1756595;79;21531;-58
2021/01/28 10:17:52;;;;;;;2.43;2.17;;;;;;;0.42;81.77;97981.27;1755653;79;21168;-59
2021/01/28 10:20:20;;;;;;;2.67;1.80;;;;;;;0.43;81.68;97979.45;1746584;79;21634;-58
2021/01/28 10:22:51;;;;;;;4.03;2.50;;;;;;;0.45;81.81;97985.11;1750713;79;21567;-57
2021/01/28 10:25:20;;;;;;;2.60;1.40;;;;;;;0.45;81.69;97981.13;1754975;79;21131;-59
2021/01/28 10:27:53;;;;;;;5.30;2.97;;;;;;;0.47;81.77;97987.70;1752437;79;21361;-59
2021/01/28 10:30:22;;;;;;;2.93;1.87;;;;;;;0.45;81.58;97986.89;1747923;79;21163;-57
2021/01/28 10:32:51;;;;;;;3.70;1.67;;;;;;;0.44;81.67;97989.13;1753792;79;21465;-56
2021/01/28 10:35:22;;;;;;;3.53;1.93;;;;;;;0.46;81.74;97985.52;1756645;79;21160;-58
2021/01/28 10:37:49;;;;;;;5.63;1.70;;;;;;;0.49;81.73;97979.25;1750024;79;21108;-58
2021/01/28 10:40:17;;;;;;;5.33;2.30;;;;;;;0.50;81.80;97967.75;1755683;79;21155;-55
2021/01/28 10:42:45;;;;;;;5.07;2.20;;;;;;;0.54;81.78;97970.67;1749631;79;21167;-58
2021/01/28 10:45:19;;;;;;;9.20;2.20;;;;;;;0.51;81.77;97971.64;1751015;79;21273;-59
2021/01/28 10:47:47;;;;;;;3.15;1.80;;;;;;;0.52;81.83;97968.08;1754037;79;21116;-58
2021/01/28 10:50:16;;;;;;;5.30;1.80;;;;;;;0.58;81.80;97977.59;1755378;79;21107;-57
2021/01/28 10:52:45;;;;;;;4.23;1.73;;;;;;;0.59;81.75;97974.03;1774354;79;21190;-58
2021/01/28 10:55:12;;;;;;;4.63;1.97;;;;;;;0.57;81.74;97979.84;1773820;79;21250;-55
2021/01/28 10:57:40;;;;;;;5.97;1.80;;;;;;;0.54;81.71;97986.56;1776611;79;23302;-57
2021/01/28 11:00:09;;;;;;;3.30;1.63;;;;;;;0.48;81.70;97983.69;1771242;79;21216;-56
2021/01/28 11:02:37;;;;;;;3.20;1.77;;;;;;;0.44;81.75;97983.83;1774743;79;21179;-57
2021/01/28 11:05:07;;;;;;;4.57;1.77;;;;;;;0.43;81.81;97986.07;1774698;79;21199;-58
2021/01/28 11:07:34;;;;;;;4.33;2.17;;;;;;;0.45;81.88;97984.23;1774476;79;21218;-59
2021/01/28 11:10:02;;;;;;;4.13;1.87;;;;;;;0.45;81.80;97986.43;1773029;79;22015;-57
2021/01/28 11:12:30;;;;;;;5.17;2.53;;;;;;;0.43;81.81;97975.02;1771454;79;21624;-58
2021/01/28 11:14:58;;;;;;;2.50;1.50;;;;;;;0.42;81.90;97966.70;1775804;79;21178;-58
2021/01/28 11:17:26;;;;;;;2.10;1.30;;;;;;;0.46;81.98;97963.02;1773824;79;21724;-58
2021/01/28 11:19:53;;;;;;;3.87;1.73;;;;;;;0.51;81.91;97956.25;1773403;79;21537;-57
2021/01/28 11:22:20;;;;;;;1.93;1.40;;;;;;;0.52;81.83;97953.52;1775582;79;21673;-57
2021/01/28 11:24:47;;;;;;;3.07;1.53;;;;;;;0.55;81.77;97946.80;1776089;79;21382;-58
2021/01/28 11:27:15;;;;;;;2.50;1.30;;;;;;;0.55;81.74;97951.22;1775685;79;21446;-59
2021/01/28 11:29:44;;;;;;;1.80;1.30;;;;;;;0.56;81.79;97943.23;1770015;79;21661;-58
2021/01/28 11:32:12;;;;;;;1.30;1.00;;;;;;;0.59;81.79;97937.84;1773599;79;21167;-56
2021/01/28 11:34:41;;;;;;;1.43;1.07;;;;;;;0.63;81.75;97934.59;1771379;79;21641;-58
2021/01/28 11:37:08;;;;;;;3.10;1.40;;;;;;;0.66;81.64;97923.90;1772522;79;21190;-57
2021/01/28 11:39:35;;;;;;;2.03;1.50;;;;;;;0.65;81.62;97923.49;1767829;79;21767;-59
2021/01/28 11:42:03;;;;;;;2.90;1.17;;;;;;;0.61;81.67;97916.11;1771618;79;21392;-57
2021/01/28 11:44:30;;;;;;;1.90;1.13;;;;;;;0.58;81.76;97908.77;1770331;79;21637;-58
2021/01/28 11:46:57;;;;;;;1.90;0.93;;;;;;;0.56;81.79;97903.98;1769780;79;21193;-55
2021/01/28 11:49:25;;;;;;;1.00;0.83;;;;;;;0.55;81.78;97910.19;1772796;79;21183;-57
2021/01/28 11:51:53;;;;;;;2.20;1.40;;;;;;;0.51;81.87;97907.27;1758216;79;21198;-58
2021/01/28 11:54:20;;;;;;;2.57;1.10;;;;;;;0.49;81.97;97905.13;1756294;79;21434;-59
2021/01/28 11:56:49;;;;;;;1.63;1.17;;;;;;;0.47;81.92;97899.03;1752454;79;21088;-57
2021/01/28 11:59:16;;;;;;;4.03;2.37;;;;;;;0.43;82.07;97894.30;1758650;79;21973;-59
2021/01/28 12:01:43;;;;;;;2.37;1.00;;;;;;;0.41;82.19;97887.35;1751928;79;21624;-56
2021/01/28 12:04:12;;;;;;;1.83;1.00;;;;;;;0.39;82.28;97884.75;1757835;79;21431;-57
2021/01/28 12:06:40;;;;;;;1.40;1.10;;;;;;;0.40;82.43;97879.00;1752949;79;21501;-56
2021/01/28 12:09:07;;;;;;;3.83;1.90;;;;;;;0.44;82.38;97881.47;1752135;79;21144;-58
2021/01/28 12:11:34;;;;;;;4.13;1.77;;;;;;;0.42;82.41;97874.52;1753181;79;21973;-57
2021/01/28 12:14:02;;;;;;;1.40;1.00;;;;;;;0.42;82.46;97881.14;1751205;79;21112;-58
2021/01/28 12:16:29;;;;;;;1.47;0.90;;;;;;;0.44;82.57;97876.17;1757574;79;21123;-57
2021/01/28 12:18:57;;;;;;;1.77;1.10;;;;;;;0.46;82.46;97886.25;1751542;79;21123;-58
2021/01/28 12:21:25;;;;;;;1.50;1.00;;;;;;;0.47;82.32;97885.33;1756551;79;21757;-58
2021/01/28 12:23:52;;;;;;;4.30;1.60;;;;;;;0.48;82.25;97883.55;1753227;79;22255;-58